createdAt,value
2018-08-24T05:16:41.692Z,22.50
2018-08-24T05:17:41.713Z,28.13
2018-08-24T05:20:25.334Z,33.75
2018-08-24T05:21:25.351Z,28.13
2018-08-24T05:23:18.211Z,22.50
2018-08-24T05:24:18.754Z,22.50
2018-08-24T05:26:11.637Z,22.50
2018-08-24T05:27:11.576Z,22.50
2018-08-24T05:29:05.150Z,28.13
2018-08-24T05:30:04.950Z,28.13
2018-08-24T05:31:58.655Z,28.13
2018-08-24T05:32:57.810Z,28.13
2018-08-24T05:34:50.958Z,28.13
2018-08-24T05:35:50.679Z,28.13
2018-08-24T05:37:44.096Z,33.75
2018-08-24T05:38:44.061Z,33.75
2018-08-24T05:40:37.039Z,39.38
2018-08-24T05:41:37.202Z,45.00
2018-08-24T05:43:30.581Z,39.38
2018-08-24T05:44:30.299Z,45.00
2018-08-24T05:46:23.666Z,45.00
2018-08-24T05:47:23.668Z,39.38
2018-08-24T05:49:16.566Z,22.50
2018-08-24T05:50:16.529Z,22.50
2018-08-24T05:52:09.434Z,28.13
2018-08-24T05:53:09.403Z,33.75
2018-08-24T05:55:02.305Z,50.63
2018-08-24T05:56:02.313Z,56.25
2018-08-24T05:57:55.661Z,50.63
2018-08-24T05:58:55.649Z,50.63
2018-08-24T06:00:48.559Z,56.25
2018-08-24T06:01:48.529Z,56.25
2018-08-24T06:03:41.431Z,50.63
2018-08-24T06:04:41.405Z,50.63
2018-08-24T06:06:34.798Z,56.25
2018-08-24T06:07:34.782Z,50.63
2018-08-24T06:09:27.680Z,61.88
2018-08-24T06:10:27.658Z,61.88
2018-08-24T06:12:20.581Z,61.88
2018-08-24T06:13:20.560Z,61.88
2018-08-24T06:15:13.958Z,56.25
2018-08-24T06:16:13.930Z,50.63
2018-08-24T06:18:06.855Z,33.75
2018-08-24T06:19:06.809Z,33.75
2018-08-24T06:20:59.710Z,33.75
2018-08-24T06:21:59.691Z,33.75
2018-08-24T06:23:52.609Z,50.63
2018-08-24T06:24:52.574Z,56.25
2018-08-24T06:26:45.465Z,78.75
2018-08-24T06:27:45.454Z,78.75
2018-08-24T06:29:38.358Z,106.88
2018-08-24T06:30:38.336Z,123.75
2018-08-24T06:32:31.235Z,129.38
2018-08-24T06:33:31.211Z,135.00
2018-08-24T06:35:24.605Z,123.75
2018-08-24T06:36:24.581Z,118.13
2018-08-24T06:38:17.981Z,106.88
2018-08-24T06:39:17.956Z,106.88
2018-08-24T06:41:10.891Z,118.13
2018-08-24T06:42:10.844Z,123.75
2018-08-24T06:44:03.774Z,135.00
2018-08-24T06:45:03.751Z,135.00
2018-08-24T06:46:56.663Z,135.00
2018-08-24T06:47:56.644Z,129.38
2018-08-24T06:49:50.031Z,135.00
2018-08-24T06:50:50.010Z,146.25
2018-08-24T06:52:43.425Z,168.75
2018-08-24T06:53:43.568Z,180.00
2018-08-24T06:55:36.781Z,202.50
2018-08-24T06:56:36.770Z,208.13
2018-08-24T06:58:29.667Z,219.38
2018-08-24T06:59:29.668Z,219.38
2018-08-24T07:01:23.047Z,241.88
2018-08-24T07:02:23.028Z,253.13
2018-08-24T07:04:15.935Z,286.88
2018-08-24T07:05:15.914Z,292.50
2018-08-24T07:07:09.313Z,326.25
2018-08-24T07:08:09.296Z,365.63
2018-08-24T07:10:02.191Z,388.13
2018-08-24T07:11:02.186Z,320.63
2018-08-24T07:12:55.110Z,275.63
2018-08-24T07:13:55.058Z,253.13
2018-08-24T07:15:47.973Z,253.13
2018-08-24T07:16:47.949Z,247.50
2018-08-24T07:18:40.854Z,225.00
2018-08-24T07:19:40.835Z,213.75
2018-08-24T07:21:33.738Z,208.13
2018-08-24T07:22:33.723Z,208.13
2018-08-24T07:24:26.630Z,258.75
2018-08-24T07:25:26.611Z,286.88
2018-08-24T07:27:19.580Z,303.75
2018-08-24T07:28:19.508Z,275.63
2018-08-24T07:30:12.420Z,286.88
2018-08-24T07:31:12.399Z,253.13
2018-08-24T07:33:05.803Z,202.50
2018-08-24T07:34:05.786Z,168.75
2018-08-24T07:35:58.698Z,151.88
2018-08-24T07:36:58.669Z,135.00
2018-08-24T07:38:52.071Z,118.13
2018-08-24T07:39:52.061Z,118.13
2018-08-24T07:41:44.972Z,129.38
2018-08-24T07:42:44.943Z,129.38
2018-08-24T07:44:38.364Z,140.63
2018-08-24T07:45:38.326Z,146.25
2018-08-24T07:47:31.232Z,140.63
2018-08-24T07:48:31.223Z,140.63
2018-08-24T07:50:24.121Z,146.25
2018-08-24T07:51:24.105Z,157.50
2018-08-24T07:53:17.859Z,163.13
2018-08-24T07:54:17.845Z,168.75
2018-08-24T07:56:10.747Z,168.75
2018-08-24T07:57:10.752Z,174.38
2018-08-24T07:59:04.127Z,185.63
2018-08-24T08:00:04.115Z,191.25
2018-08-24T08:01:57.516Z,208.13
2018-08-24T08:02:57.492Z,225.00
2018-08-24T08:04:50.404Z,241.88
2018-08-24T08:05:50.381Z,247.50
2018-08-24T08:07:43.289Z,236.25
2018-08-24T08:08:43.274Z,230.63
2018-08-24T08:10:36.170Z,219.38
2018-08-24T08:11:36.154Z,225.00
2018-08-24T08:13:29.060Z,230.63
2018-08-24T08:14:29.045Z,230.63
2018-08-24T08:16:22.516Z,230.63
2018-08-24T08:17:21.931Z,225.00
2018-08-24T08:19:14.841Z,225.00
2018-08-24T08:20:14.816Z,230.63
2018-08-24T08:22:07.727Z,230.63
2018-08-24T08:23:07.707Z,230.63
2018-08-24T08:25:00.612Z,230.63
2018-08-24T08:26:00.593Z,236.25
2018-08-24T08:27:54.020Z,241.88
2018-08-24T08:28:54.003Z,236.25
2018-08-24T08:30:47.407Z,236.25
2018-08-24T08:31:47.390Z,241.88
2018-08-24T08:33:40.794Z,258.75
2018-08-24T08:34:40.765Z,281.25
2018-08-24T08:36:34.241Z,320.63
2018-08-24T08:37:34.152Z,309.38
2018-08-24T08:39:27.049Z,320.63
2018-08-24T08:40:27.041Z,320.63
2018-08-24T08:42:19.941Z,298.13
2018-08-24T08:43:19.921Z,281.25
2018-08-24T08:45:13.359Z,258.75
2018-08-24T08:46:13.314Z,241.88
2018-08-24T08:48:07.280Z,241.88
2018-08-24T08:49:07.257Z,236.25
2018-08-24T08:51:00.164Z,225.00
2018-08-24T08:52:00.149Z,225.00
2018-08-24T08:53:53.553Z,253.13
2018-08-24T08:54:53.532Z,286.88
2018-08-24T08:56:46.446Z,303.75
2018-08-24T08:57:46.422Z,275.63
2018-08-24T08:59:39.328Z,286.88
2018-08-24T09:00:39.317Z,298.13
2018-08-24T09:02:32.223Z,298.13
2018-08-24T09:03:32.207Z,303.75
2018-08-24T09:05:25.116Z,303.75
2018-08-24T09:06:25.179Z,281.25
2018-08-24T09:08:18.013Z,281.25
2018-08-24T09:09:17.994Z,292.50
2018-08-24T09:11:10.898Z,309.38
2018-08-24T09:12:10.880Z,337.50
2018-08-24T09:14:03.790Z,348.75
2018-08-24T09:15:03.774Z,365.63
2018-08-24T09:16:56.679Z,382.50
2018-08-24T09:17:56.665Z,376.88
2018-08-24T09:19:49.571Z,371.25
2018-08-24T09:20:49.547Z,371.25
2018-08-24T09:22:42.467Z,365.63
2018-08-24T09:23:42.489Z,309.38
2018-08-24T09:25:35.880Z,247.50
2018-08-24T09:26:35.834Z,241.88
2018-08-24T09:28:28.738Z,219.38
2018-08-24T09:29:28.723Z,225.00
2018-08-24T09:31:21.627Z,196.88
2018-08-24T09:32:21.653Z,213.75
2018-08-24T09:34:15.024Z,208.13
2018-08-24T09:35:15.005Z,202.50
2018-08-24T09:37:08.411Z,236.25
2018-08-24T09:38:08.388Z,281.25
2018-08-24T09:40:01.300Z,292.50
2018-08-24T09:41:01.275Z,354.38
2018-08-24T09:42:54.704Z,213.75
2018-08-24T09:43:54.659Z,168.75
2018-08-24T09:45:47.571Z,157.50
2018-08-24T09:46:47.542Z,163.13
2018-08-24T09:48:40.465Z,168.75
2018-08-24T09:49:40.441Z,191.25
2018-08-24T09:51:33.348Z,247.50
2018-08-24T09:52:33.333Z,241.88
2018-08-24T09:54:26.241Z,202.50
2018-08-24T09:55:26.223Z,185.63
2018-08-24T09:57:19.131Z,180.00
2018-08-24T09:58:19.110Z,202.50
2018-08-24T10:00:12.506Z,219.38
2018-08-24T10:01:12.499Z,258.75
2018-08-24T10:03:05.397Z,281.25
2018-08-24T10:04:05.372Z,270.00
2018-08-24T10:05:58.773Z,236.25
2018-08-24T10:06:58.762Z,230.63
2018-08-24T10:08:51.669Z,236.25
2018-08-24T10:09:51.653Z,281.25
2018-08-24T10:11:45.052Z,208.13
2018-08-24T10:12:45.037Z,202.50
2018-08-24T10:14:38.436Z,174.38
2018-08-24T10:15:38.412Z,202.50
2018-08-24T10:17:31.321Z,241.88
2018-08-24T10:18:31.302Z,236.25
2018-08-24T10:20:24.221Z,225.00
2018-08-24T10:21:24.194Z,225.00
2018-08-24T10:23:17.102Z,270.00
2018-08-24T10:24:17.085Z,236.25
2018-08-24T10:26:10.007Z,208.13
2018-08-24T10:27:09.971Z,230.63
2018-08-24T10:29:02.870Z,230.63
2018-08-24T10:30:02.866Z,230.63
2018-08-24T10:31:56.330Z,168.75
2018-08-24T10:32:55.748Z,196.88
2018-08-24T10:34:48.650Z,202.50
2018-08-24T10:35:48.628Z,208.13
2018-08-24T10:37:42.032Z,180.00
2018-08-24T10:38:42.012Z,174.38
2018-08-24T10:40:34.921Z,163.13
2018-08-24T10:41:34.897Z,163.13
2018-08-24T10:43:28.296Z,163.13
2018-08-24T10:44:28.279Z,163.13
2018-08-24T10:46:21.194Z,174.38
2018-08-24T10:47:21.249Z,241.88
2018-08-24T10:49:14.101Z,292.50
2018-08-24T10:50:14.063Z,275.63
2018-08-24T10:52:06.962Z,264.38
2018-08-24T10:53:06.946Z,258.75
2018-08-24T10:55:00.495Z,219.38
2018-08-24T10:56:00.374Z,185.63
2018-08-24T10:57:53.742Z,241.88
2018-08-24T10:58:53.758Z,225.00
2018-08-24T11:00:47.147Z,225.00
2018-08-24T11:01:47.133Z,191.25
2018-08-24T11:03:40.034Z,202.50
2018-08-24T11:04:40.018Z,219.38
2018-08-24T11:06:32.924Z,219.38
2018-08-24T11:07:32.927Z,213.75
2018-08-24T11:09:26.308Z,208.13
2018-08-24T11:10:26.286Z,225.00
2018-08-24T11:12:19.201Z,286.88
2018-08-24T11:13:19.180Z,303.75
2018-08-24T11:15:12.574Z,236.25
2018-08-24T11:16:12.561Z,202.50
2018-08-24T11:18:05.957Z,163.13
2018-08-24T11:19:05.939Z,146.25
2018-08-24T11:20:58.849Z,157.50
2018-08-24T11:21:58.832Z,174.38
2018-08-24T11:23:52.228Z,253.13
2018-08-24T11:24:52.209Z,247.50
2018-08-24T11:26:45.116Z,191.25
2018-08-24T11:27:45.101Z,185.63
2018-08-24T11:29:38.010Z,191.25
2018-08-24T11:30:38.002Z,185.63
2018-08-24T11:32:30.906Z,213.75
2018-08-24T11:33:30.893Z,225.00
2018-08-24T11:35:24.676Z,225.00
2018-08-24T11:36:24.670Z,202.50
2018-08-24T11:38:18.053Z,247.50
2018-08-24T11:39:18.056Z,236.25
2018-08-24T11:41:10.940Z,219.38
2018-08-24T11:42:10.954Z,185.63
2018-08-24T11:44:04.331Z,202.50
2018-08-24T11:45:04.347Z,213.75
2018-08-24T11:46:57.219Z,219.38
2018-08-24T11:47:57.273Z,213.75
2018-08-24T11:49:50.955Z,213.75
2018-08-24T11:50:50.944Z,219.38
2018-08-24T11:52:44.341Z,208.13
2018-08-24T11:53:44.320Z,213.75
2018-08-24T11:55:37.797Z,196.88
2018-08-24T11:56:37.217Z,213.75
2018-08-24T11:58:30.613Z,208.13
2018-08-24T11:59:30.597Z,208.13
2018-08-24T12:01:23.514Z,202.50
2018-08-24T12:02:23.491Z,208.13
2018-08-24T12:04:16.890Z,202.50
2018-08-24T12:05:16.872Z,196.88
2018-08-24T12:07:09.781Z,202.50
2018-08-24T12:08:09.949Z,202.50
2018-08-24T12:10:02.692Z,191.25
2018-08-24T12:11:02.669Z,202.50
2018-08-24T12:12:56.073Z,202.50
2018-08-24T12:13:56.106Z,202.50
2018-08-24T12:15:48.971Z,208.13
2018-08-24T12:16:48.942Z,213.75
2018-08-24T12:18:41.846Z,230.63
2018-08-24T12:19:41.830Z,236.25
2018-08-24T12:21:35.287Z,247.50
2018-08-24T12:22:35.217Z,247.50
2018-08-24T12:24:28.142Z,270.00
2018-08-24T12:25:28.109Z,270.00
2018-08-24T12:27:21.016Z,264.38
2018-08-24T12:28:20.998Z,264.38
2018-08-24T12:30:13.905Z,281.25
2018-08-24T12:31:13.900Z,298.13
2018-08-24T12:33:06.921Z,309.38
2018-08-24T12:34:06.893Z,309.38
2018-08-24T12:36:00.284Z,315.00
2018-08-24T12:37:00.270Z,303.75
2018-08-24T12:38:53.172Z,281.25
2018-08-24T12:39:53.165Z,270.00
2018-08-24T12:41:46.559Z,253.13
2018-08-24T12:42:46.544Z,253.13
2018-08-24T12:44:39.940Z,253.13
2018-08-24T12:45:39.925Z,241.88
2018-08-24T12:47:32.834Z,230.63
2018-08-24T12:48:32.820Z,225.00
2018-08-24T12:50:25.725Z,219.38
2018-08-24T12:51:25.712Z,213.75
2018-08-24T12:53:19.112Z,225.00
2018-08-24T12:54:19.103Z,219.38
2018-08-24T12:56:12.498Z,208.13
2018-08-24T12:57:12.487Z,202.50
2018-08-24T12:59:05.890Z,180.00
2018-08-24T13:00:05.919Z,168.75
2018-08-24T13:01:58.779Z,157.50
2018-08-24T13:02:58.759Z,151.88
2018-08-24T13:04:51.668Z,151.88
2018-08-24T13:05:51.647Z,163.13
2018-08-24T13:07:45.053Z,185.63
2018-08-24T13:08:45.104Z,196.88
2018-08-24T13:10:37.943Z,185.63
2018-08-24T13:11:37.926Z,180.00
2018-08-24T13:13:30.829Z,168.75
2018-08-24T13:14:30.819Z,185.63
2018-08-24T13:16:23.725Z,236.25
2018-08-24T13:17:23.706Z,258.75
2018-08-24T13:19:17.119Z,281.25
2018-08-24T13:20:17.104Z,281.25
2018-08-24T13:22:10.007Z,258.75
2018-08-24T13:23:09.990Z,241.88
2018-08-24T13:25:02.900Z,225.00
2018-08-24T13:26:02.881Z,225.00
2018-08-24T13:27:55.790Z,236.25
2018-08-24T13:28:55.770Z,241.88
2018-08-24T13:30:48.682Z,253.13
2018-08-24T13:31:48.665Z,253.13
2018-08-24T13:33:42.062Z,258.75
2018-08-24T13:34:42.050Z,258.75
2018-08-24T13:36:34.959Z,258.75
2018-08-24T13:37:34.942Z,258.75
2018-08-24T13:39:27.849Z,253.13
2018-08-24T13:40:27.835Z,247.50
2018-08-24T13:42:21.843Z,253.13
2018-08-24T13:43:21.242Z,253.13
2018-08-24T13:45:14.137Z,253.13
2018-08-24T13:46:14.139Z,253.13
2018-08-24T13:48:07.026Z,241.88
2018-08-24T13:49:07.002Z,236.25
2018-08-24T13:50:59.931Z,236.25
2018-08-24T13:51:59.902Z,241.88
2018-08-24T13:53:53.306Z,247.50
2018-08-24T13:54:53.380Z,241.88
2018-08-24T13:56:46.685Z,236.25
2018-08-24T13:57:46.673Z,230.63
2018-08-24T13:59:39.706Z,230.63
2018-08-24T14:00:39.563Z,230.63
2018-08-24T14:02:33.533Z,236.25
2018-08-24T14:03:33.517Z,236.25
2018-08-24T14:05:26.502Z,225.00
2018-08-24T14:06:26.405Z,219.38
2018-08-24T14:08:19.311Z,213.75
2018-08-24T14:09:19.298Z,213.75
2018-08-24T14:11:12.208Z,213.75
2018-08-24T14:12:12.191Z,213.75
2018-08-24T14:14:05.122Z,219.38
2018-08-24T14:15:05.079Z,219.38
2018-08-24T14:16:57.987Z,219.38
2018-08-24T14:17:57.970Z,213.75
2018-08-24T14:19:50.896Z,208.13
2018-08-24T14:20:50.870Z,208.13
2018-08-24T14:22:43.778Z,191.25
2018-08-24T14:23:43.754Z,180.00
2018-08-24T14:25:37.174Z,191.25
2018-08-24T14:26:37.201Z,196.88
2018-08-24T14:28:30.054Z,202.50
2018-08-24T14:29:30.039Z,202.50
2018-08-24T14:31:22.946Z,196.88
2018-08-24T14:32:22.932Z,196.88
2018-08-24T14:34:16.330Z,202.50
2018-08-24T14:35:16.313Z,208.13
2018-08-24T14:37:09.221Z,208.13
2018-08-24T14:38:09.228Z,208.13
2018-08-24T14:40:02.179Z,208.13
2018-08-24T14:41:02.094Z,208.13
2018-08-24T14:42:55.000Z,208.13
2018-08-24T14:43:54.988Z,208.13
2018-08-24T14:45:48.381Z,196.88
2018-08-24T14:46:48.371Z,191.25
2018-08-24T14:48:41.274Z,185.63
2018-08-24T14:49:41.254Z,185.63
2018-08-24T14:51:34.660Z,180.00
2018-08-24T14:52:34.637Z,174.38
2018-08-24T14:54:27.552Z,168.75
2018-08-24T14:55:27.533Z,163.13
2018-08-24T14:57:20.440Z,163.13
2018-08-24T14:58:20.422Z,163.13
2018-08-24T15:00:13.826Z,168.75
2018-08-24T15:01:13.807Z,168.75
2018-08-24T15:03:07.216Z,168.75
2018-08-24T15:04:07.196Z,174.38
2018-08-24T15:06:00.112Z,174.38
2018-08-24T15:07:00.089Z,180.00
2018-08-24T15:08:53.567Z,185.63
2018-08-24T15:09:53.505Z,191.25
2018-08-24T15:11:46.375Z,191.25
2018-08-24T15:12:46.358Z,191.25
2018-08-24T15:14:39.766Z,180.00
2018-08-24T15:15:39.742Z,174.38
2018-08-24T15:17:33.144Z,180.00
2018-08-24T15:18:33.129Z,180.00
2018-08-24T15:20:26.037Z,168.75
2018-08-24T15:21:26.019Z,163.13
2018-08-24T15:23:18.923Z,163.13
2018-08-24T15:24:18.910Z,163.13
2018-08-24T15:26:11.820Z,174.38
2018-08-24T15:27:11.805Z,174.38
2018-08-24T15:29:04.711Z,163.13
2018-08-24T15:30:04.699Z,157.50
2018-08-24T15:31:57.602Z,151.88
2018-08-24T15:32:57.587Z,151.88
2018-08-24T15:34:50.495Z,146.25
2018-08-24T15:35:50.476Z,140.63
2018-08-24T15:37:43.875Z,140.63
2018-08-24T15:38:43.862Z,157.50
2018-08-24T15:40:36.768Z,163.13
2018-08-24T15:41:36.749Z,163.13
2018-08-24T15:43:29.655Z,163.13
2018-08-24T15:44:29.653Z,168.75
2018-08-24T15:46:22.596Z,163.13
2018-08-24T15:47:22.523Z,157.50
2018-08-24T15:49:15.919Z,151.88
2018-08-24T15:50:15.903Z,146.25
2018-08-24T15:52:08.811Z,146.25
2018-08-24T15:53:08.796Z,146.25
2018-08-24T15:55:02.196Z,140.63
2018-08-24T15:56:02.180Z,135.00
2018-08-24T15:57:55.575Z,129.38
2018-08-24T15:58:55.558Z,123.75
2018-08-24T16:00:48.956Z,118.13
2018-08-24T16:01:48.931Z,118.13
2018-08-24T16:03:41.846Z,118.13
2018-08-24T16:04:41.827Z,118.13
2018-08-24T16:06:34.740Z,123.75
2018-08-24T16:07:34.723Z,123.75
2018-08-24T16:09:27.678Z,123.75
2018-08-24T16:10:27.657Z,123.75
2018-08-24T16:12:20.609Z,129.38
2018-08-24T16:13:20.544Z,140.63
2018-08-24T16:15:13.455Z,146.25
2018-08-24T16:16:13.437Z,140.63
2018-08-24T16:18:06.837Z,123.75
2018-08-24T16:19:06.818Z,118.13
2018-08-24T16:20:59.720Z,106.88
2018-08-24T16:21:59.721Z,101.25
2018-08-24T16:23:53.101Z,106.88
2018-08-24T16:24:53.101Z,106.88
2018-08-24T16:26:45.994Z,106.88
2018-08-24T16:27:45.975Z,106.88
2018-08-24T16:29:38.888Z,101.25
2018-08-24T16:30:38.863Z,101.25
2018-08-24T16:32:31.798Z,95.63
2018-08-24T16:33:31.748Z,90.00
2018-08-24T16:35:24.653Z,84.38
2018-08-24T16:36:24.632Z,84.38
2018-08-24T16:38:18.036Z,90.00
2018-08-24T16:39:18.015Z,84.38
2018-08-24T16:41:11.418Z,95.63
2018-08-24T16:42:11.393Z,95.63
2018-08-24T16:44:04.286Z,101.25
2018-08-24T16:45:04.277Z,101.25
2018-08-24T16:46:57.183Z,90.00
2018-08-24T16:47:57.154Z,90.00
2018-08-24T16:49:50.560Z,90.00
2018-08-24T16:50:50.542Z,90.00
2018-08-24T16:52:43.442Z,84.38
2018-08-24T16:53:43.424Z,78.75
2018-08-24T16:55:36.823Z,67.50
2018-08-24T16:56:36.800Z,61.88
2018-08-24T16:58:29.703Z,61.88
2018-08-24T16:59:29.683Z,61.88
2018-08-24T17:01:22.597Z,61.88
2018-08-24T17:02:22.569Z,61.88
2018-08-24T17:04:15.468Z,61.88
2018-08-24T17:05:15.477Z,56.25
2018-08-24T17:07:08.360Z,50.63
2018-08-24T17:08:08.335Z,45.00
2018-08-24T17:10:01.250Z,45.00
2018-08-24T17:11:01.233Z,39.38
2018-08-24T17:12:54.655Z,45.00
2018-08-24T17:13:54.604Z,45.00
2018-08-24T17:15:48.068Z,45.00
2018-08-24T17:16:47.986Z,45.00
2018-08-24T17:18:41.378Z,45.00
2018-08-24T17:19:41.356Z,45.00
2018-08-24T17:21:34.753Z,45.00
2018-08-24T17:22:34.736Z,45.00
2018-08-24T17:24:27.637Z,39.38
2018-08-24T17:25:27.618Z,33.75
2018-08-24T17:27:20.531Z,33.75
2018-08-24T17:28:20.500Z,33.75
2018-08-24T17:30:13.418Z,28.13
2018-08-24T17:31:13.387Z,28.13
2018-08-24T17:33:06.296Z,28.13
2018-08-24T17:34:06.271Z,28.13
2018-08-24T17:35:59.705Z,28.13
2018-08-24T17:36:59.692Z,28.13
2018-08-24T17:38:52.618Z,28.13
2018-08-24T17:39:52.575Z,28.13
2018-08-24T17:41:45.484Z,22.50
2018-08-24T17:42:49.298Z,22.50
2018-08-24T17:44:38.782Z,22.50
2018-08-24T17:45:38.832Z,22.50
2018-08-24T17:47:32.961Z,22.50
2018-08-24T17:48:32.020Z,22.50
2018-08-24T17:50:25.786Z,22.50
2018-08-24T17:51:25.432Z,22.50
2018-08-24T17:53:19.172Z,22.50
2018-08-24T17:54:18.863Z,22.50
2018-08-24T17:56:12.001Z,16.88
2018-08-24T17:57:11.669Z,16.88
2018-08-24T17:59:04.977Z,16.88
2018-08-24T18:00:04.729Z,16.88
2018-08-24T18:01:59.009Z,16.88
2018-08-24T18:02:58.637Z,16.88
2018-08-24T18:04:52.861Z,11.25
2018-08-24T18:05:52.002Z,11.25
2018-08-24T18:07:45.466Z,11.25
2018-08-24T18:08:45.436Z,11.25
2018-08-24T18:10:38.474Z,11.25
2018-08-24T18:11:38.264Z,11.25
2018-08-24T18:13:31.676Z,5.63
2018-08-24T18:14:31.662Z,5.63
2018-08-24T18:16:25.056Z,5.63
2018-08-24T18:17:25.017Z,5.63
2018-08-24T18:19:18.845Z,5.63
2018-08-24T18:20:18.959Z,5.63
2018-08-24T18:22:11.304Z,5.63
2018-08-24T18:23:11.289Z,5.63
2018-08-24T18:25:04.945Z,5.63
2018-08-24T18:26:04.647Z,5.63
2018-08-24T18:27:58.693Z,0.00
2018-08-24T18:28:58.071Z,0.00
2018-08-24T18:30:51.746Z,0.00
2018-08-24T18:31:51.395Z,0.00
2018-08-24T18:33:45.646Z,0.00
2018-08-24T18:34:45.389Z,0.00
2018-08-24T18:36:38.760Z,0.00
2018-08-24T18:37:39.014Z,0.00
2018-08-24T18:39:32.168Z,0.00
2018-08-24T18:40:32.388Z,0.00
2018-08-24T18:42:27.365Z,0.00
2018-08-24T18:43:26.252Z,0.00
2018-08-24T18:45:18.702Z,0.00
2018-08-24T18:46:18.350Z,0.00
2018-08-24T18:48:11.609Z,0.00
2018-08-24T18:49:11.519Z,0.00
2018-08-24T18:51:04.618Z,0.00
2018-08-24T18:52:04.613Z,0.00
2018-08-24T18:53:57.514Z,0.00
2018-08-24T18:54:57.501Z,0.00
2018-08-24T18:56:51.450Z,0.00
2018-08-24T18:57:50.916Z,0.00
2018-08-24T18:59:44.575Z,0.00
2018-08-24T19:00:44.289Z,0.00
2018-08-24T19:02:37.500Z,0.00
2018-08-24T19:03:37.365Z,0.00
2018-08-24T19:05:30.821Z,0.00
2018-08-24T19:06:30.514Z,0.00
2018-08-24T19:08:24.203Z,0.00
2018-08-24T19:09:23.886Z,0.00
2018-08-24T19:11:17.704Z,0.00
2018-08-24T19:12:17.554Z,0.00
2018-08-24T19:14:13.241Z,0.00
2018-08-24T19:15:10.649Z,0.00
2018-08-24T19:17:04.249Z,0.00
2018-08-24T19:18:04.648Z,0.00
2018-08-24T19:19:57.612Z,0.00
2018-08-24T19:20:57.392Z,0.00
2018-08-24T19:22:51.051Z,0.00
2018-08-24T19:23:50.781Z,0.00
2018-08-24T19:25:44.478Z,0.00
2018-08-24T19:26:44.156Z,0.00
2018-08-24T19:28:37.750Z,0.00
2018-08-24T19:29:37.513Z,0.00
2018-08-24T19:31:31.139Z,0.00
2018-08-24T19:32:30.923Z,0.00
2018-08-24T19:34:24.650Z,0.00
2018-08-24T19:35:24.293Z,0.00
2018-08-24T19:37:17.962Z,0.00
2018-08-24T19:38:17.656Z,0.00
2018-08-24T19:40:11.359Z,0.00
2018-08-24T19:41:11.042Z,0.00
2018-08-24T19:43:04.640Z,0.00
2018-08-24T19:44:04.404Z,0.00
2018-08-24T19:45:57.363Z,0.00
2018-08-24T19:46:57.342Z,0.00
2018-08-24T19:48:50.391Z,0.00
2018-08-24T19:49:50.596Z,0.00
2018-08-24T19:51:46.486Z,0.00
2018-08-24T19:52:46.169Z,0.00
2018-08-24T19:54:39.862Z,0.00
2018-08-24T19:55:39.511Z,0.00
2018-08-24T19:57:33.208Z,0.00
2018-08-24T19:58:32.900Z,0.00
2018-08-24T20:00:26.394Z,0.00
2018-08-24T20:01:25.893Z,0.00
2018-08-24T20:03:19.615Z,0.00
2018-08-24T20:04:19.251Z,0.00
2018-08-24T20:06:13.090Z,0.00
2018-08-24T20:07:12.668Z,0.00
2018-08-24T20:09:06.368Z,0.00
2018-08-24T20:10:08.592Z,0.00
2018-08-24T20:12:01.226Z,0.00
2018-08-24T20:13:00.819Z,0.00
2018-08-24T20:14:54.088Z,0.00
2018-08-24T20:15:54.142Z,0.00
2018-08-24T20:17:47.516Z,0.00
2018-08-24T20:18:47.168Z,0.00
2018-08-24T20:20:41.605Z,0.00
2018-08-24T20:21:40.509Z,0.00
2018-08-24T20:23:34.037Z,0.00
2018-08-24T20:24:33.845Z,0.00
2018-08-24T20:26:28.471Z,0.00
2018-08-24T20:27:28.356Z,0.00
2018-08-24T20:29:21.856Z,0.00
2018-08-24T20:30:23.265Z,0.00
2018-08-24T20:32:15.253Z,0.00
2018-08-24T20:33:15.351Z,0.00
2018-08-24T20:35:09.574Z,0.00
2018-08-24T20:36:08.005Z,0.00
2018-08-24T20:38:01.420Z,0.00
2018-08-24T20:39:01.116Z,0.00
2018-08-24T20:40:55.554Z,0.00
2018-08-24T20:41:55.883Z,0.00
2018-08-24T20:43:48.811Z,0.00
2018-08-24T20:44:48.376Z,0.00
2018-08-24T20:46:41.942Z,0.00
2018-08-24T20:47:41.672Z,0.00
2018-08-24T20:49:35.071Z,0.00
2018-08-24T20:50:35.039Z,0.00
2018-08-24T20:52:28.509Z,0.00
2018-08-24T20:53:28.688Z,0.00
2018-08-24T20:55:22.116Z,0.00
2018-08-24T20:56:21.768Z,0.00
2018-08-24T20:58:15.437Z,0.00
2018-08-24T20:59:15.145Z,0.00
2018-08-24T21:01:08.871Z,0.00
2018-08-24T21:02:08.521Z,0.00
2018-08-24T21:04:02.336Z,0.00
2018-08-24T21:05:01.879Z,0.00
2018-08-24T21:06:55.290Z,0.00
2018-08-24T21:07:55.831Z,0.00
2018-08-24T21:09:49.096Z,0.00
2018-08-24T21:10:49.073Z,0.00
2018-08-24T21:12:41.575Z,0.00
2018-08-24T21:13:41.534Z,0.00
2018-08-24T21:15:35.257Z,0.00
2018-08-24T21:16:34.910Z,0.00
2018-08-24T21:18:28.707Z,0.00
2018-08-24T21:19:28.714Z,0.00
2018-08-24T21:21:21.509Z,0.00
2018-08-24T21:22:21.461Z,0.00
2018-08-24T21:24:14.856Z,0.00
2018-08-24T21:25:14.870Z,0.00
2018-08-24T21:27:08.312Z,0.00
2018-08-24T21:28:07.862Z,0.00
2018-08-24T21:30:01.392Z,0.00
2018-08-24T21:31:01.541Z,0.00
2018-08-24T21:32:54.955Z,0.00
2018-08-24T21:33:54.995Z,0.00
2018-08-24T21:35:48.370Z,0.00
2018-08-24T21:36:48.384Z,0.00
2018-08-24T21:38:41.720Z,0.00
2018-08-24T21:39:41.727Z,0.00
2018-08-24T21:41:34.648Z,0.00
2018-08-24T21:42:34.207Z,0.00
2018-08-24T21:44:28.584Z,0.00
2018-08-24T21:45:28.006Z,0.00
2018-08-24T21:47:21.613Z,0.00
2018-08-24T21:48:21.254Z,0.00
2018-08-24T21:50:15.447Z,0.00
2018-08-24T21:51:14.330Z,0.00
2018-08-24T21:53:08.630Z,0.00
2018-08-24T21:54:08.092Z,0.00
2018-08-24T21:56:00.966Z,0.00
2018-08-24T21:57:00.924Z,0.00
2018-08-24T21:58:54.355Z,0.00
2018-08-24T21:59:54.334Z,0.00
2018-08-24T22:01:47.754Z,0.00
2018-08-24T22:02:47.699Z,0.00
2018-08-24T22:04:40.467Z,0.00
2018-08-24T22:05:40.192Z,0.00
2018-08-24T22:07:34.016Z,0.00
2018-08-24T22:08:33.580Z,0.00
2018-08-24T22:10:27.072Z,0.00
2018-08-24T22:11:26.931Z,0.00
2018-08-24T22:13:20.339Z,0.00
2018-08-24T22:14:20.305Z,0.00
2018-08-24T22:16:13.692Z,0.00
2018-08-24T22:17:13.675Z,0.00
2018-08-24T22:19:06.575Z,0.00
2018-08-24T22:20:06.549Z,0.00
2018-08-24T22:21:59.549Z,0.00
2018-08-24T22:22:59.422Z,0.00
2018-08-24T22:24:52.944Z,0.00
2018-08-24T22:25:52.809Z,0.00
2018-08-24T22:27:46.182Z,0.00
2018-08-24T22:28:46.168Z,0.00
2018-08-24T22:30:39.582Z,0.00
2018-08-24T22:31:39.529Z,0.00
2018-08-24T22:33:32.478Z,0.00
2018-08-24T22:34:32.426Z,0.00
2018-08-24T22:36:25.841Z,0.00
2018-08-24T22:37:25.286Z,0.00
2018-08-24T22:39:18.767Z,0.00
2018-08-24T22:40:18.674Z,0.00
2018-08-24T22:42:12.226Z,0.00
2018-08-24T22:43:12.037Z,0.00
2018-08-24T22:45:05.156Z,0.00
2018-08-24T22:46:04.913Z,0.00
2018-08-24T22:47:58.292Z,0.00
2018-08-24T22:48:58.272Z,0.00
2018-08-24T22:50:51.814Z,0.00
2018-08-24T22:51:51.658Z,0.00
2018-08-24T22:53:45.026Z,0.00
2018-08-24T22:54:45.013Z,0.00
2018-08-24T22:56:37.915Z,0.00
2018-08-24T22:57:37.910Z,0.00
2018-08-24T22:59:31.532Z,0.00
2018-08-24T23:00:31.318Z,0.00
2018-08-24T23:02:25.248Z,0.00
2018-08-24T23:03:24.639Z,0.00
2018-08-24T23:05:17.707Z,0.00
2018-08-24T23:06:17.551Z,0.00
2018-08-24T23:08:11.502Z,0.00
2018-08-24T23:09:10.889Z,0.00
2018-08-24T23:11:03.792Z,0.00
2018-08-24T23:12:03.792Z,0.00
2018-08-24T23:13:57.168Z,0.00
2018-08-24T23:14:57.147Z,0.00
2018-08-24T23:16:50.201Z,0.00
2018-08-24T23:17:50.028Z,0.00
2018-08-24T23:19:43.010Z,0.00
2018-08-24T23:20:42.913Z,0.00
2018-08-24T23:22:35.829Z,0.00
2018-08-24T23:23:35.761Z,0.00
2018-08-24T23:25:29.154Z,0.00
2018-08-24T23:26:29.131Z,0.00
2018-08-24T23:28:22.531Z,0.00
2018-08-24T23:29:22.497Z,0.00
2018-08-24T23:31:15.468Z,0.00
2018-08-24T23:32:15.365Z,0.00
2018-08-24T23:34:08.860Z,0.00
2018-08-24T23:35:08.757Z,0.00
2018-08-24T23:37:02.163Z,0.00
2018-08-24T23:38:02.127Z,0.00
2018-08-24T23:39:55.137Z,0.00
2018-08-24T23:40:54.995Z,0.00
2018-08-24T23:42:48.404Z,0.00